Time;durP1;ratioP1;P1;durP2;ratioP2;P2;SDS_P1;SDS_P2;PMS_P1;PMS_P2;Temp;Humidity;BMP_temperature;BMP_pressure;BME280_temperature;BME280_humidity;BME280_pressure;Samples;Min_cycle;Max_cycle;Signal;HPM_P1;HPM_P2
2024/02/23 00:01:22;;;;;;;0.45;0.45;;;;;;;9.33;82.50;96053.09;8;21548601;21798136;-61
2024/02/23 00:04:42;;;;;;;0.60;0.40;;;;;;;9.32;82.86;96050.88;8;21524099;21748596;-61
2024/02/23 00:08:10;;;;;;;0.50;0.45;;;;;;;9.33;82.58;96035.94;8;21548709;21772668;-61
2024/02/23 00:11:32;;;;;;;0.35;0.35;;;;;;;9.35;83.20;96042.38;8;21598630;21773627;-61
2024/02/23 00:14:53;;;;;;;1.35;0.60;;;;;;;9.27;85.05;96038.72;8;21573561;21749111;-61
2024/02/23 00:18:13;;;;;;;1.20;0.60;;;;;;;9.31;84.41;96028.28;8;21548588;21723599;-61
2024/02/23 00:21:33;;;;;;;1.00;0.75;;;;;;;9.38;83.46;96030.47;8;21574102;21873343;-61
2024/02/23 00:24:56;;;;;;;0.25;0.25;;;;;;;9.33;84.62;96025.78;8;21548161;21800060;-61
2024/02/23 00:28:16;;;;;;;0.20;0.20;;;;;;;9.30;85.79;96021.31;8;21573621;21749104;-60
2024/02/23 00:31:36;;;;;;;0.30;0.30;;;;;;;9.27;85.63;96021.59;8;21574032;21799089;-61
2024/02/23 00:34:56;;;;;;;1.25;0.60;;;;;;;9.27;86.85;96027.06;8;21573696;21822859;-61
2024/02/23 00:38:17;;;;;;;0.20;0.20;;;;;;;9.27;87.42;96032.53;8;21598565;21774566;-61
2024/02/23 00:41:40;;;;;;;1.70;0.75;;;;;;;9.26;87.49;96037.25;8;21598133;21823619;-62
2024/02/23 00:45:00;;;;;;;0.15;0.15;;;;;;;9.30;87.32;96031.50;8;21548161;21849094;-61
2024/02/23 00:48:20;;;;;;;0.60;0.55;;;;;;;9.29;88.63;96036.25;8;21548625;21798171;-61
2024/02/23 00:51:40;;;;;;;0.50;0.50;;;;;;;9.25;90.15;96040.47;8;21498595;21798660;-62
2024/02/23 00:55:00;;;;;;;0.25;0.25;;;;;;;9.28;89.52;96039.47;8;21574087;21724087;-61
2024/02/23 00:58:23;;;;;;;0.45;0.45;;;;;;;9.18;90.30;96036.31;8;21599600;21773049;-61
2024/02/23 01:01:44;;;;;;;0.20;0.20;;;;;;;9.21;91.04;96045.47;8;21574128;21848614;-61
2024/02/23 01:05:04;;;;;;;1.85;0.50;;;;;;;9.20;91.07;96044.72;8;21523602;21798691;-60
2024/02/23 01:08:24;;;;;;;0.40;0.30;;;;;;;9.20;91.43;96036.53;8;21548693;21822632;-61
2024/02/23 01:11:44;;;;;;;0.30;0.30;;;;;;;9.24;91.62;96037.00;8;21548634;21750045;-61
2024/02/23 01:15:09;;;;;;;1.00;0.75;;;;;;;9.31;91.04;96046.66;8;21548621;21773599;-61
2024/02/23 01:18:29;;;;;;;1.90;0.50;;;;;;;9.22;93.27;96039.50;8;21573120;21825035;-61
2024/02/23 01:21:55;;;;;;;0.10;0.10;;;;;;;9.33;93.22;96050.38;8;21599034;21773631;-61
2024/02/23 01:25:16;;;;;;;0.35;0.35;;;;;;;9.12;96.24;96047.25;8;21573077;21749595;-61
2024/02/23 01:28:36;;;;;;;0.40;0.30;;;;;;;9.13;95.76;96046.00;8;21448084;21698656;-60
2024/02/23 01:31:59;;;;;;;0.40;0.40;;;;;;;9.12;96.60;96047.25;8;21573627;21774342;-61
2024/02/23 01:35:19;;;;;;;0.20;0.20;;;;;;;9.25;97.11;96054.13;8;21548651;21774299;-61
2024/02/23 01:38:39;;;;;;;0.55;0.55;;;;;;;9.04;100.00;96057.22;8;21573194;21699048;-61
2024/02/23 01:42:00;;;;;;;0.30;0.30;;;;;;;8.95;100.00;96057.53;8;21573624;21823159;-61
2024/02/23 01:45:21;;;;;;;1.40;1.30;;;;;;;8.78;100.00;96065.78;8;21623586;21749981;-61
2024/02/23 01:48:43;;;;;;;1.20;0.70;;;;;;;8.82;100.00;96062.78;8;21548550;21749994;-61
2024/02/23 01:52:05;;;;;;;1.75;0.85;;;;;;;8.69;100.00;96061.34;8;21572658;21773580;-61
2024/02/23 01:55:26;;;;;;;0.35;0.35;;;;;;;8.49;100.00;96069.84;8;21548130;21849096;-61
2024/02/23 01:58:47;;;;;;;0.50;0.25;;;;;;;8.27;100.00;96055.00;8;21574650;21873053;-61
2024/02/23 02:02:07;;;;;;;0.20;0.20;;;;;;;8.15;100.00;96052.78;8;21598614;21749054;-61
2024/02/23 02:05:30;;;;;;;0.25;0.25;;;;;;;7.97;100.00;96056.78;8;21623628;21823007;-61
2024/02/23 02:08:51;;;;;;;0.35;0.30;;;;;;;7.88;100.00;96055.06;8;21598663;21823603;-61
2024/02/23 02:12:11;;;;;;;0.20;0.20;;;;;;;7.96;100.00;96052.56;8;21499136;21799536;-61
2024/02/23 02:15:31;;;;;;;0.35;0.20;;;;;;;7.97;100.00;96045.88;8;21549122;21799525;-61
2024/02/23 02:18:51;;;;;;;0.45;0.45;;;;;;;8.10;100.00;96043.38;8;21524117;21748144;-61
2024/02/23 02:22:14;;;;;;;0.40;0.40;;;;;;;8.13;100.00;96047.84;8;21573637;21747587;-61
2024/02/23 02:25:34;;;;;;;0.25;0.25;;;;;;;8.23;100.00;96046.34;8;21548145;21797665;-60
2024/02/23 02:28:54;;;;;;;0.20;0.20;;;;;;;8.15;100.00;96047.34;8;21548609;21774131;-61
2024/02/23 02:32:14;;;;;;;0.25;0.25;;;;;;;8.16;100.00;96041.41;8;21498192;21873523;-61
2024/02/23 02:35:35;;;;;;;0.40;0.40;;;;;;;8.24;100.00;96042.34;8;21649100;21874554;-60
2024/02/23 02:38:58;;;;;;;0.45;0.45;;;;;;;8.20;100.00;96038.41;8;21498622;21823163;-60
2024/02/23 02:42:18;;;;;;;0.50;0.30;;;;;;;8.21;100.00;96037.91;8;21523131;21723562;-60
2024/02/23 02:45:38;;;;;;;0.30;0.30;;;;;;;8.18;100.00;96043.59;8;21549031;21823535;-61
2024/02/23 02:48:59;;;;;;;0.75;0.55;;;;;;;8.16;100.00;96044.13;8;21598636;21749585;-60
2024/02/23 02:52:21;;;;;;;0.25;0.25;;;;;;;8.22;100.00;96047.56;8;21573580;21923548;-60
2024/02/23 02:55:46;;;;;;;0.75;0.75;;;;;;;8.19;100.00;96037.66;8;21649625;21774120;-61
2024/02/23 02:59:06;;;;;;;0.20;0.20;;;;;;;8.33;100.00;96030.44;8;21523172;21849189;-61
2024/02/23 03:02:26;;;;;;;0.80;0.55;;;;;;;8.28;100.00;96040.13;8;21473634;21748199;-60
2024/02/23 03:05:46;;;;;;;0.45;0.45;;;;;;;8.34;100.00;96040.09;8;21598085;21799051;-61
2024/02/23 03:09:07;;;;;;;0.65;0.30;;;;;;;8.37;100.00;96049.25;8;21597647;21749064;-61
2024/02/23 03:12:29;;;;;;;1.15;0.60;;;;;;;8.44;100.00;96041.38;8;21548007;21724010;-60
2024/02/23 03:15:49;;;;;;;1.05;0.40;;;;;;;8.55;99.77;96039.84;8;21548620;21923198;-60
2024/02/23 03:19:09;;;;;;;0.15;0.15;;;;;;;8.56;98.48;96042.03;8;21524094;21823602;-61
2024/02/23 03:22:27;;;;;;;;;;;;;;;8.50;98.14;96047.53;8;21298588;21673665;-60
2024/02/23 03:25:48;;;;;;;0.35;0.35;;;;;;;8.59;95.72;96037.59;8;21498175;21748600;-61
2024/02/23 03:29:11;;;;;;;0.30;0.30;;;;;;;8.59;96.93;96040.31;8;21574596;21773142;-60
2024/02/23 03:32:35;;;;;;;0.30;0.30;;;;;;;8.59;95.62;96034.88;8;21598570;21848083;-61
2024/02/23 03:35:56;;;;;;;0.35;0.35;;;;;;;8.50;96.69;96039.34;8;21598059;21723646;-61
2024/02/23 03:39:16;;;;;;;0.35;0.30;;;;;;;8.57;96.68;96042.81;8;21498749;21723953;-62
2024/02/23 03:42:36;;;;;;;0.40;0.40;;;;;;;8.62;95.21;96039.31;8;21523671;21823576;-61
2024/02/23 03:45:59;;;;;;;0.45;0.45;;;;;;;8.55;95.06;96045.28;8;21598607;21874047;-61
2024/02/23 03:49:19;;;;;;;0.15;0.15;;;;;;;8.51;97.68;96045.53;8;21523634;21774605;-60
2024/02/23 03:52:40;;;;;;;0.35;0.35;;;;;;;8.39;99.55;96058.44;8;21524135;21799631;-61
2024/02/23 03:56:00;;;;;;;0.60;0.45;;;;;;;8.48;98.81;96060.91;8;21548176;21799150;-61
2024/02/23 03:59:20;;;;;;;0.50;0.40;;;;;;;8.44;98.25;96068.63;8;21548658;21848041;-61
2024/02/23 04:02:43;;;;;;;0.50;0.50;;;;;;;8.39;100.00;96068.59;8;21548125;21774093;-61
2024/02/23 04:06:03;;;;;;;0.40;0.40;;;;;;;8.42;99.00;96068.38;8;21522785;21773083;-61
2024/02/23 04:09:24;;;;;;;1.35;0.45;;;;;;;8.40;100.00;96078.31;8;21622923;21798558;-61
2024/02/23 04:12:45;;;;;;;0.45;0.45;;;;;;;8.40;100.00;96064.69;8;21573663;21798605;-61
2024/02/23 04:16:06;;;;;;;0.45;0.40;;;;;;;8.41;99.30;96083.25;8;21574156;21675033;-61
2024/02/23 04:19:28;;;;;;;0.45;0.45;;;;;;;8.45;98.76;96080.28;8;21598153;21723146;-61
2024/02/23 04:22:49;;;;;;;0.40;0.40;;;;;;;8.55;99.66;96084.22;8;21624609;21823182;-60
2024/02/23 04:26:11;;;;;;;0.20;0.20;;;;;;;8.63;100.00;96076.97;8;21573060;21798099;-61
2024/02/23 04:29:32;;;;;;;0.25;0.25;;;;;;;8.65;100.00;96090.88;8;21598102;21723651;-61
2024/02/23 04:32:52;;;;;;;0.30;0.30;;;;;;;8.59;100.00;96087.44;8;21548140;21748513;-61
2024/02/23 04:36:15;;;;;;;0.25;0.25;;;;;;;8.67;100.00;96087.66;8;21523690;21750019;-60
2024/02/23 04:39:37;;;;;;;0.40;0.40;;;;;;;8.60;100.00;96099.06;8;21623599;21774111;-61
2024/02/23 04:42:57;;;;;;;0.15;0.15;;;;;;;8.43;100.00;96097.13;8;21548664;21775025;-61
2024/02/23 04:46:18;;;;;;;0.30;0.30;;;;;;;8.53;100.00;96095.59;8;21498643;21774529;-61
2024/02/23 04:49:38;;;;;;;0.35;0.35;;;;;;;8.70;100.00;96100.28;8;21573175;21849549;-61
2024/02/23 04:53:01;;;;;;;0.20;0.20;;;;;;;8.71;100.00;96110.69;8;21523513;21722677;-61
2024/02/23 04:56:23;;;;;;;0.10;0.10;;;;;;;8.38;100.00;96108.03;8;21574087;21848598;-61
2024/02/23 04:59:43;;;;;;;1.05;0.60;;;;;;;8.21;100.00;96110.78;8;21598590;21824068;-61
2024/02/23 05:03:04;;;;;;;1.15;0.70;;;;;;;7.93;100.00;96127.88;8;21573142;21823543;-61
2024/02/23 05:06:24;;;;;;;0.50;0.50;;;;;;;7.93;100.00;96121.69;8;21548554;21873191;-61
2024/02/23 05:09:47;;;;;;;0.90;0.70;;;;;;;8.10;100.00;96122.41;8;21599097;21724640;-61
2024/02/23 05:13:07;;;;;;;0.15;0.15;;;;;;;8.19;100.00;96124.88;8;21523071;21798569;-61
2024/02/23 05:16:28;;;;;;;0.40;0.40;;;;;;;8.16;100.00;96120.44;8;21548597;21773448;-62
2024/02/23 05:19:49;;;;;;;0.15;0.15;;;;;;;8.33;100.00;96118.44;8;21599087;21873629;-63
2024/02/23 05:23:09;;;;;;;0.80;0.55;;;;;;;8.29;100.00;96125.38;8;21573615;21822627;-63
2024/02/23 05:26:32;;;;;;;2.55;1.35;;;;;;;8.20;100.00;96128.34;8;21598641;21774560;-61
2024/02/23 05:29:50;;;;;;;;;;;;;;;7.74;100.00;96135.78;8;21374049;21748557;-61
2024/02/23 05:33:11;;;;;;;4.00;2.10;;;;;;;7.86;100.00;96136.53;8;21648670;21749066;-61
2024/02/23 05:36:31;;;;;;;2.60;1.85;;;;;;;7.59;100.00;96132.53;8;21548633;21798605;-60
2024/02/23 05:39:51;;;;;;;2.80;1.40;;;;;;;7.62;100.00;96126.09;8;21499113;21723196;-61
2024/02/23 05:43:14;;;;;;;1.20;0.95;;;;;;;7.81;100.00;96129.09;8;21523070;21823599;-61
2024/02/23 05:46:35;;;;;;;1.30;0.95;;;;;;;7.81;100.00;96123.66;8;21548592;21773583;-60
2024/02/23 05:49:55;;;;;;;1.00;0.70;;;;;;;7.84;100.00;96122.66;8;21673116;21823573;-61
2024/02/23 05:53:15;;;;;;;0.60;0.55;;;;;;;7.74;100.00;96121.41;8;21623109;21824559;-60
2024/02/23 05:56:37;;;;;;;0.20;0.20;;;;;;;7.63;100.00;96122.91;8;21498163;21800080;-60
2024/02/23 06:00:00;;;;;;;0.20;0.20;;;;;;;7.43;100.00;96118.41;8;21597625;21923638;-60
2024/02/23 06:03:21;;;;;;;0.45;0.45;;;;;;;7.50;100.00;96122.63;8;21547571;21773652;-60
2024/02/23 06:06:45;;;;;;;0.75;0.70;;;;;;;7.52;100.00;96127.59;8;21623641;21849137;-60
2024/02/23 06:10:05;;;;;;;0.65;0.65;;;;;;;7.28;100.00;96117.13;8;21573627;21749059;-60
2024/02/23 06:13:25;;;;;;;0.65;0.65;;;;;;;7.37;100.00;96131.25;8;21524185;21723077;-60
2024/02/23 06:16:48;;;;;;;0.80;0.45;;;;;;;7.23;100.00;96135.66;8;21548120;21774107;-60
2024/02/23 06:20:11;;;;;;;0.50;0.50;;;;;;;7.41;100.00;96141.94;8;21548169;21848180;-61
2024/02/23 06:23:31;;;;;;;0.50;0.50;;;;;;;7.24;100.00;96144.59;8;21549021;21799601;-61
2024/02/23 06:26:52;;;;;;;0.20;0.20;;;;;;;7.20;100.00;96147.53;8;21623586;21798616;-60
2024/02/23 06:30:13;;;;;;;2.05;1.60;;;;;;;7.21;100.00;96149.03;8;21574128;21774095;-60
2024/02/23 06:33:37;;;;;;;2.20;1.10;;;;;;;7.29;100.00;96151.28;8;21598173;21849559;-60
2024/02/23 06:36:59;;;;;;;1.50;1.20;;;;;;;7.12;100.00;96134.88;8;21523158;21825881;-59
2024/02/23 06:40:20;;;;;;;3.10;1.20;;;;;;;7.20;100.00;96146.81;8;21648196;21798569;-60
2024/02/23 06:43:40;;;;;;;0.95;0.80;;;;;;;7.24;100.00;96150.03;8;21598035;21748711;-61
2024/02/23 06:47:00;;;;;;;2.60;1.25;;;;;;;7.25;100.00;96160.44;8;21523615;21749529;-61
2024/02/23 06:50:24;;;;;;;2.05;1.20;;;;;;;7.03;100.00;96160.34;8;21599030;21848626;-60
2024/02/23 06:53:44;;;;;;;1.70;1.00;;;;;;;7.22;100.00;96152.50;8;21648653;21798125;-61
2024/02/23 06:57:05;;;;;;;1.40;1.15;;;;;;;7.06;100.00;96151.19;8;21573007;21823039;-61
2024/02/23 07:00:25;;;;;;;1.40;0.95;;;;;;;7.14;100.00;96152.22;8;21523608;21923637;-62
2024/02/23 07:03:45;;;;;;;5.00;2.10;;;;;;;7.13;100.00;96158.16;8;21574083;21798128;-59
2024/02/23 07:07:09;;;;;;;3.70;1.60;;;;;;;7.18;100.00;96169.06;8;21623067;21748470;-61
2024/02/23 07:10:29;;;;;;;1.70;0.90;;;;;;;7.36;100.00;96172.56;8;21548562;21873623;-61
2024/02/23 07:13:49;;;;;;;2.25;1.30;;;;;;;7.27;100.00;96168.13;8;21498179;21873519;-61
2024/02/23 07:17:10;;;;;;;0.80;0.70;;;;;;;7.39;100.00;96174.34;8;21548596;21749084;-61
2024/02/23 07:20:29;;;;;;;1.95;1.10;;;;;;;7.58;100.00;96167.22;8;21548104;21774063;-61
2024/02/23 07:23:52;;;;;;;1.35;0.90;;;;;;;7.64;100.00;96167.94;8;21497629;21849580;-61
2024/02/23 07:27:12;;;;;;;0.55;0.55;;;;;;;7.82;100.00;96166.75;8;21549016;21800044;-61
2024/02/23 07:30:34;;;;;;;1.05;0.85;;;;;;;7.94;100.00;96174.94;8;21598101;21799070;-61
2024/02/23 07:33:54;;;;;;;0.95;0.70;;;;;;;8.00;100.00;96175.69;8;21549141;21797670;-61
2024/02/23 07:37:14;;;;;;;0.60;0.55;;;;;;;7.99;100.00;96182.38;8;21574628;21748159;-61
2024/02/23 07:40:38;;;;;;;0.75;0.75;;;;;;;8.17;100.00;96187.34;8;21599110;21824553;-61
2024/02/23 07:43:58;;;;;;;0.65;0.50;;;;;;;8.26;100.00;96192.53;8;21523610;21799109;-61
2024/02/23 07:47:17;;;;;;;;;;;;;;;8.30;100.00;96189.59;8;21298535;21673121;-61
2024/02/23 07:50:37;;;;;;;0.70;0.70;;;;;;;8.33;100.00;96196.78;8;21547781;21748140;-61
2024/02/23 07:53:57;;;;;;;1.65;1.25;;;;;;;8.11;100.00;96192.06;8;21549094;21748588;-60
2024/02/23 07:57:20;;;;;;;2.30;1.40;;;;;;;8.29;100.00;96193.53;8;21498664;21749081;-61
2024/02/23 08:00:40;;;;;;;1.05;0.60;;;;;;;8.46;100.00;96197.03;8;21574092;21749110;-61
2024/02/23 08:04:01;;;;;;;2.70;1.10;;;;;;;8.53;100.00;96199.25;8;21573554;21774546;-61
2024/02/23 08:07:21;;;;;;;1.45;1.35;;;;;;;8.52;100.00;96207.94;8;21524078;21748096;-62
2024/02/23 08:10:42;;;;;;;1.05;0.90;;;;;;;8.42;100.00;96204.72;8;21574037;21824566;-61
2024/02/23 08:14:05;;;;;;;0.90;0.80;;;;;;;8.53;100.00;96210.16;8;21574051;21698582;-61
2024/02/23 08:17:26;;;;;;;1.55;1.00;;;;;;;8.67;100.00;96202.97;8;21574041;21848647;-61
2024/02/23 08:20:46;;;;;;;1.00;1.00;;;;;;;8.68;100.00;96203.69;8;21573621;21799124;-60
2024/02/23 08:24:07;;;;;;;1.25;0.70;;;;;;;8.78;100.00;96215.09;8;21574070;21723116;-61
2024/02/23 08:27:27;;;;;;;0.65;0.60;;;;;;;8.76;100.00;96221.06;8;21573171;21748554;-61
2024/02/23 08:30:50;;;;;;;3.85;1.10;;;;;;;8.72;100.00;96221.31;8;21574064;21823608;-61
2024/02/23 08:34:09;;;;;;;;;;;;;;;8.55;100.00;96214.38;8;21373137;21774055;-60
2024/02/23 08:37:28;;;;;;;1.30;0.95;;;;;;;8.62;100.00;96211.91;8;21473731;21823627;-62
2024/02/23 08:40:50;;;;;;;2.40;1.80;;;;;;;8.51;100.00;96215.38;8;21524100;21798109;-62
2024/02/23 08:44:09;;;;;;;5.15;1.00;;;;;;;8.46;100.00;96201.75;8;21473650;21723479;-61
2024/02/23 08:47:34;;;;;;;1.10;0.95;;;;;;;8.43;100.00;96202.75;8;21548088;21873122;-61
2024/02/23 08:50:55;;;;;;;1.60;1.25;;;;;;;8.52;100.00;96200.50;8;21548646;21823487;-61
2024/02/23 08:54:13;;;;;;;;;;;;;;;8.50;100.00;96196.78;8;21348619;21623661;-61
2024/02/23 08:57:33;;;;;;;3.35;1.65;;;;;;;8.53;100.00;96193.06;8;21499043;21674052;-61
2024/02/23 09:00:53;;;;;;;2.25;1.05;;;;;;;8.59;100.00;96206.72;8;21573584;21697605;-61
2024/02/23 09:04:22;;;;;;;4.75;1.50;;;;;;;8.54;100.00;96205.47;8;21623568;21749578;-60
2024/02/23 09:07:42;;;;;;;2.55;1.30;;;;;;;8.57;100.00;96207.19;8;21598557;21775028;-61
2024/02/23 09:11:03;;;;;;;2.00;1.55;;;;;;;8.58;100.00;96211.41;8;21598561;21874562;-61
2024/02/23 09:14:25;;;;;;;2.30;1.35;;;;;;;8.67;100.00;96207.69;8;21573583;21724086;-61
2024/02/23 09:17:45;;;;;;;2.10;1.30;;;;;;;8.83;100.00;96206.91;8;21598621;21773613;-60
2024/02/23 09:21:09;;;;;;;1.45;1.10;;;;;;;8.93;100.00;96196.47;8;21523607;21823119;-61
2024/02/23 09:24:29;;;;;;;1.70;0.50;;;;;;;8.99;100.00;96188.25;8;21473202;21699546;-61
2024/02/23 09:27:47;;;;;;;;;;;;;;;8.91;100.00;96183.31;8;21448086;21698603;-60
2024/02/23 09:31:08;;;;;;;1.60;0.90;;;;;;;8.95;100.00;96188.53;8;21500073;21798605;-61
2024/02/23 09:34:29;;;;;;;0.85;0.75;;;;;;;9.10;100.00;96210.81;8;21549114;21749069;-61
2024/02/23 09:37:52;;;;;;;1.05;0.90;;;;;;;9.09;100.00;96220.25;8;21624317;21898586;-61
2024/02/23 09:41:22;;;;;;;1.00;0.80;;;;;;;8.95;100.00;96208.38;8;21498548;21849045;-60
2024/02/23 09:44:48;;;;;;;2.60;0.90;;;;;;;8.90;100.00;96205.66;8;21498102;21850046;-61
2024/02/23 09:48:10;;;;;;;1.60;1.45;;;;;;;8.83;100.00;96198.00;8;21598641;21724070;-61
2024/02/23 09:51:31;;;;;;;1.40;0.95;;;;;;;8.80;100.00;96210.63;8;21598197;21848586;-61
2024/02/23 09:54:54;;;;;;;1.75;1.25;;;;;;;8.77;100.00;96224.53;8;21498632;21875008;-61
2024/02/23 09:58:17;;;;;;;2.90;1.00;;;;;;;8.77;100.00;96205.44;8;21573144;21750017;-61
2024/02/23 10:01:38;;;;;;;0.75;0.70;;;;;;;8.78;100.00;96209.63;8;21498571;21749556;-61
2024/02/23 10:04:59;;;;;;;3.90;1.65;;;;;;;8.75;100.00;96203.19;8;21548144;21799065;-61
2024/02/23 10:08:21;;;;;;;2.05;1.15;;;;;;;8.70;100.00;96212.88;8;21498152;21698596;-61
2024/02/23 10:11:42;;;;;;;;;;;;;;;8.71;100.00;96208.91;8;21249093;21699000;-61
2024/02/23 10:15:03;;;;;;;;;;;;;;;8.71;100.00;96203.47;8;21348135;21849100;-60
2024/02/23 10:18:24;;;;;;;3.35;2.30;;;;;;;8.73;100.00;96203.72;8;21549037;21723716;-60
2024/02/23 10:21:44;;;;;;;1.55;1.45;;;;;;;8.66;100.00;96201.47;8;21574084;21749077;-61
2024/02/23 10:25:05;;;;;;;2.35;1.80;;;;;;;8.83;100.00;96206.19;8;21573566;21874983;-60
2024/02/23 10:28:26;;;;;;;;;;;;;;;8.86;100.00;96224.28;8;21323610;21823537;-61
2024/02/23 10:31:50;;;;;;;1.50;1.10;;;;;;;8.87;100.00;96206.66;8;21548583;21873216;-61
2024/02/23 10:35:17;;;;;;;1.05;0.95;;;;;;;8.79;100.00;96195.50;8;21548698;21773120;-61
2024/02/23 10:38:36;;;;;;;;;;;;;;;8.82;100.00;96199.94;8;21397592;21723706;-60
2024/02/23 10:41:59;;;;;;;;;;;;;;;8.78;100.00;96183.13;8;21299041;21698180;-61
2024/02/23 10:45:23;;;;;;;2.60;1.90;;;;;;;8.83;100.00;96182.34;8;21498577;21748548;-61
2024/02/23 10:48:45;;;;;;;2.60;1.45;;;;;;;8.90;100.00;96190.03;8;21524063;21698129;-61
2024/02/23 10:52:09;;;;;;;1.80;1.60;;;;;;;8.94;100.00;96195.94;8;21624109;21748048;-61
2024/02/23 10:55:31;;;;;;;1.00;0.95;;;;;;;8.93;100.00;96175.38;8;21523081;21723141;-62
2024/02/23 10:58:52;;;;;;;2.30;1.45;;;;;;;8.92;100.00;96170.41;8;21599070;21823143;-61
2024/02/23 11:02:16;;;;;;;;;;;;;;;8.94;100.00;96171.38;8;21324090;21723642;-61
2024/02/23 11:05:37;;;;;;;1.65;1.00;;;;;;;9.01;100.00;96175.59;8;21523122;21848629;-61
2024/02/23 11:09:09;;;;;;;1.45;1.25;;;;;;;9.09;100.00;96176.56;8;21523595;21697591;-61
2024/02/23 11:12:33;;;;;;;1.20;0.95;;;;;;;9.07;100.00;96165.41;8;21548583;21798633;-61
2024/02/23 11:15:53;;;;;;;1.05;0.90;;;;;;;9.05;100.00;96161.69;8;21648558;21973238;-61
2024/02/23 11:19:15;;;;;;;;;;;;;;;9.17;100.00;96155.69;8;21372625;21748620;-61
2024/02/23 11:22:37;;;;;;;1.65;1.15;;;;;;;9.03;100.00;96148.53;8;21473128;21724075;-61
2024/02/23 11:26:14;;;;;;;1.35;1.25;;;;;;;9.30;100.00;96151.66;8;21522627;21723621;-61
2024/02/23 11:29:34;;;;;;;1.65;1.25;;;;;;;9.42;100.00;96147.63;8;21474057;21748624;-61
2024/02/23 11:33:02;;;;;;;2.90;1.65;;;;;;;9.30;100.00;96146.19;8;21548636;21723602;-61
2024/02/23 11:36:33;;;;;;;1.20;1.10;;;;;;;9.15;100.00;96143.78;8;21548128;21798585;-61
2024/02/23 11:39:53;;;;;;;1.60;1.50;;;;;;;9.34;100.00;96141.22;8;21548584;21723554;-61
2024/02/23 11:43:15;;;;;;;1.35;0.85;;;;;;;9.60;100.00;96138.84;8;21573589;21724125;-61
2024/02/23 11:46:35;;;;;;;3.70;2.35;;;;;;;9.47;100.00;96133.19;8;21524098;21773675;-61
2024/02/23 11:49:56;;;;;;;5.30;2.20;;;;;;;9.61;100.00;96139.56;8;21473225;21873552;-61
2024/02/23 11:53:21;;;;;;;1.90;1.30;;;;;;;9.14;100.00;96140.31;8;21623116;21824067;-61
2024/02/23 11:56:41;;;;;;;1.20;0.80;;;;;;;9.27;100.00;96133.56;8;21523647;21848563;-61
2024/02/23 12:00:01;;;;;;;1.35;1.25;;;;;;;9.36;100.00;96134.00;8;21549065;21773628;-61
2024/02/23 12:03:20;;;;;;;;;;;;;;;9.42;100.00;96135.97;8;21448104;21773602;-61
2024/02/23 12:06:40;;;;;;;1.20;1.10;;;;;;;9.26;100.00;96126.59;8;21499053;21773638;-61
2024/02/23 12:10:03;;;;;;;1.00;0.95;;;;;;;9.19;100.00;96125.16;8;21523186;21824986;-61
2024/02/23 12:13:24;;;;;;;2.25;1.15;;;;;;;9.14;100.00;96117.75;8;21598140;21773657;-61
2024/02/23 12:16:44;;;;;;;2.20;1.30;;;;;;;9.38;100.00;96111.66;8;21648158;21724113;-61
2024/02/23 12:20:06;;;;;;;3.60;1.70;;;;;;;9.19;100.00;96111.50;8;21599063;21823563;-61
2024/02/23 12:23:24;;;;;;;;;;;;;;;9.05;100.00;96109.84;8;21373124;21623018;-60
2024/02/23 12:26:47;;;;;;;1.95;1.40;;;;;;;9.36;100.00;96101.25;8;21624116;21773292;-61
2024/02/23 12:30:09;;;;;;;2.35;1.40;;;;;;;9.29;100.00;96099.03;8;21598626;21749512;-61
2024/02/23 12:33:30;;;;;;;;;;;;;;;9.40;100.00;96098.22;8;21398613;21773587;-61
2024/02/23 12:36:51;;;;;;;1.70;1.45;;;;;;;9.28;100.00;96096.81;8;21598753;21850069;-61
2024/02/23 12:42:48;;;;;;;;;;;;;;;9.38;100.00;96082.38;517566;71;21773579;-62
2024/02/23 12:46:08;;;;;;;;;;;;;;;9.32;100.00;96078.16;8;21398696;21773217;-62
2024/02/23 12:49:26;;;;;;;;;;;;;;;9.34;100.00;96083.88;8;21323590;21648076;-62
2024/02/23 12:52:47;;;;;;;3.15;1.90;;;;;;;9.25;100.00;96073.25;8;21649034;21799448;-62
2024/02/23 12:56:09;;;;;;;2.05;1.80;;;;;;;9.39;100.00;96048.31;8;21573136;21725056;-65
2024/02/23 12:59:31;;;;;;;2.70;1.40;;;;;;;9.23;100.00;96057.34;8;21498611;21749117;-62
2024/02/23 13:02:50;;;;;;;;;;;;;;;9.18;100.00;96055.41;8;21347935;21673629;-62
2024/02/23 13:06:10;;;;;;;1.55;1.25;;;;;;;9.29;100.00;96049.16;8;21474068;21748209;-62
2024/02/23 13:09:31;;;;;;;1.75;1.40;;;;;;;9.26;100.00;96048.19;8;21573107;21873652;-62
2024/02/23 13:12:50;;;;;;;1.30;1.10;;;;;;;9.25;100.00;96043.94;8;21523630;21675086;-62
2024/02/23 13:16:14;;;;;;;7.45;2.10;;;;;;;9.30;100.00;96045.16;8;21523628;21775000;-62
2024/02/23 13:19:35;;;;;;;1.90;1.55;;;;;;;9.30;100.00;96043.16;8;21599035;21924570;-63
2024/02/23 13:22:53;;;;;;;;;;;;;;;9.25;100.00;96046.69;8;21398034;21748625;-62
2024/02/23 13:26:14;;;;;;;2.45;2.05;;;;;;;9.42;100.00;96029.44;8;21523644;21724113;-62
2024/02/23 13:29:34;;;;;;;2.80;1.40;;;;;;;9.44;100.00;96016.03;8;21473101;21773096;-62
2024/02/23 13:32:57;;;;;;;4.25;2.55;;;;;;;9.38;100.00;96005.91;8;21598149;21874093;-62
2024/02/23 13:36:17;;;;;;;2.15;1.85;;;;;;;9.61;100.00;96013.91;8;21548084;21848552;-62
2024/02/23 13:39:37;;;;;;;1.05;0.95;;;;;;;9.83;100.00;96004.78;8;21548523;21823094;-62
2024/02/23 13:42:57;;;;;;;2.25;1.45;;;;;;;9.68;100.00;95994.22;8;21573659;21749073;-62
2024/02/23 13:46:18;;;;;;;1.75;1.35;;;;;;;9.77;100.00;95993.16;8;21499081;21823085;-62
2024/02/23 13:49:40;;;;;;;2.05;1.35;;;;;;;9.76;100.00;95980.72;8;21524111;21674046;-62
2024/02/23 13:53:00;;;;;;;1.65;1.25;;;;;;;9.85;100.00;95985.13;8;21573086;21798067;-62
2024/02/23 13:56:24;;;;;;;1.95;1.45;;;;;;;9.91;100.00;95980.34;8;21623637;21798529;-62
2024/02/23 13:59:42;;;;;;;;;;;;;;;9.67;100.00;95978.31;8;21374109;21648646;-62
2024/02/23 14:03:02;;;;;;;1.50;1.30;;;;;;;9.80;100.00;95971.00;8;21523178;21774103;-61
2024/02/23 14:06:25;;;;;;;1.80;1.45;;;;;;;9.86;100.00;95965.50;8;21623119;21874070;-62
2024/02/23 14:09:46;;;;;;;2.05;1.25;;;;;;;9.80;100.00;95962.06;8;21548599;21899055;-62
2024/02/23 14:13:07;;;;;;;2.25;1.45;;;;;;;9.84;99.73;95957.06;8;21599141;21824168;-62
2024/02/23 14:16:27;;;;;;;1.65;1.55;;;;;;;9.78;100.00;95954.38;8;21548096;21748987;-62
2024/02/23 14:19:44;;;;;;;;;;;;;;;9.96;100.00;95955.69;8;21223188;21598606;-62
2024/02/23 14:23:07;;;;;;;3.85;2.10;;;;;;;9.97;100.00;95956.44;8;21498200;21800022;-62
2024/02/23 14:26:26;;;;;;;;;;;;;;;9.90;100.00;95955.00;8;21348510;21673600;-62
2024/02/23 14:29:46;;;;;;;1.85;1.25;;;;;;;9.96;98.76;95960.44;8;21599067;21798131;-62
2024/02/23 14:33:07;;;;;;;1.85;1.60;;;;;;;9.97;97.33;95964.63;8;21548655;21773069;-62
2024/02/23 14:36:27;;;;;;;3.55;1.45;;;;;;;9.95;97.89;95965.13;8;21474054;21824075;-62
2024/02/23 14:39:50;;;;;;;1.25;1.15;;;;;;;10.00;94.50;95963.59;8;21573594;21723023;-62
2024/02/23 14:43:10;;;;;;;2.35;2.15;;;;;;;9.89;96.03;95958.28;8;21523582;21848596;-62
2024/02/23 14:46:30;;;;;;;2.90;2.35;;;;;;;9.79;97.65;95939.47;8;21573134;21849043;-62
2024/02/23 14:49:51;;;;;;;2.60;1.85;;;;;;;9.94;100.00;95925.41;8;21623630;21798111;-62
2024/02/23 14:53:12;;;;;;;1.00;0.95;;;;;;;9.96;97.83;95933.84;8;21573055;21798521;-62
2024/02/23 14:56:34;;;;;;;2.15;1.40;;;;;;;10.00;97.39;95939.00;8;21573686;21698834;-62
2024/02/23 14:59:53;;;;;;;;;;;;;;;9.94;99.68;95924.66;8;21348609;21748148;-62
2024/02/23 15:03:13;;;;;;;3.00;1.80;;;;;;;9.77;99.62;95922.84;8;21549121;21773599;-62
2024/02/23 15:06:33;;;;;;;4.25;1.80;;;;;;;9.71;98.74;95919.41;8;21523615;21750041;-62
2024/02/23 15:09:53;;;;;;;4.30;1.90;;;;;;;9.78;98.97;95913.38;8;21473555;21823164;-62
2024/02/23 15:13:15;;;;;;;1.85;1.65;;;;;;;9.77;100.00;95916.66;8;21573592;21747694;-62
2024/02/23 15:16:34;;;;;;;;;;;;;;;9.68;100.00;95909.53;8;21349062;21723639;-62
2024/02/23 15:19:54;;;;;;;3.45;2.45;;;;;;;9.64;100.00;95900.84;8;21548648;21798206;-62
2024/02/23 15:23:12;;;;;;;;;;;;;;;9.54;100.00;95899.72;8;21348090;21699054;-62
2024/02/23 15:26:33;;;;;;;2.85;2.20;;;;;;;9.49;100.00;95906.72;8;21600040;21823115;-62